Time;durP1;ratioP1;P1;durP2;ratioP2;P2;SDS_P1;SDS_P2;PMS_P1;PMS_P2;Temp;Humidity;BMP_temperature;BMP_pressure;BME280_temperature;BME280_humidity;BME280_pressure;Samples;Min_cycle;Max_cycle;Signal;HPM_P1;HPM_P2
2022/05/18 00:00:56;;;;;;;2.65;2.45;;;23.00;55.00;;;;;;5065447;28;43702;-62
2022/05/18 00:03:35;;;;;;;3.05;2.33;;;22.90;55.00;;;;;;5067493;28;43790;-62
2022/05/18 00:06:04;;;;;;;2.58;2.38;;;22.90;55.00;;;;;;5064497;28;43557;-62
2022/05/18 00:08:36;;;;;;;2.50;2.30;;;22.90;54.90;;;;;;5067806;28;44362;-62
2022/05/18 00:11:07;;;;;;;2.47;2.28;;;22.90;54.90;;;;;;5064114;28;43962;-62
2022/05/18 00:13:36;;;;;;;3.05;2.40;;;22.90;54.90;;;;;;5067202;28;43556;-62
2022/05/18 00:16:04;;;;;;;2.67;2.35;;;22.90;55.00;;;;;;5067593;28;43499;-62
2022/05/18 00:18:32;;;;;;;2.88;2.53;;;22.90;55.00;;;;;;5066329;28;43646;-62
2022/05/18 00:21:00;;;;;;;2.50;2.30;;;22.90;54.90;;;;;;5068341;28;43447;-62
2022/05/18 00:23:28;;;;;;;3.20;2.50;;;22.90;55.10;;;;;;5067015;28;43431;-61
2022/05/18 00:25:56;;;;;;;2.70;2.30;;;22.90;54.90;;;;;;5069086;28;43451;-62
2022/05/18 00:28:24;;;;;;;2.65;2.25;;;22.90;54.90;;;;;;5064814;28;43812;-62
2022/05/18 00:30:52;;;;;;;2.50;2.30;;;22.90;54.90;;;;;;5066768;28;43710;-62
2022/05/18 00:33:20;;;;;;;2.70;2.50;;;22.80;54.90;;;;;;5066952;28;43534;-62
2022/05/18 00:35:48;;;;;;;2.70;2.50;;;22.80;54.90;;;;;;5076249;28;43476;-62
2022/05/18 00:38:15;;;;;;;2.63;2.42;;;22.80;54.90;;;;;;5065206;28;44827;-62
2022/05/18 00:40:49;;;;;;;2.70;2.50;;;22.80;54.90;;;;;;5066611;28;44005;-62
2022/05/18 00:43:29;;;;;;;2.63;2.40;;;22.80;54.90;;;;;;5062382;28;43501;-61
2022/05/18 00:46:01;;;;;;;3.30;2.50;;;22.80;54.80;;;;;;5066888;28;44016;-62
2022/05/18 00:48:29;;;;;;;2.78;2.50;;;22.80;54.80;;;;;;5072369;28;43966;-62
2022/05/18 00:51:00;;;;;;;2.92;2.58;;;22.80;54.80;;;;;;5069413;27;43693;-62
2022/05/18 00:53:37;;;;;;;2.58;2.38;;;22.80;54.80;;;;;;5069361;28;43542;-62
2022/05/18 00:56:09;;;;;;;3.03;2.22;;;22.80;54.80;;;;;;5065650;28;43596;-61
2022/05/18 00:58:42;;;;;;;2.47;2.28;;;22.80;54.90;;;;;;5070063;28;43778;-62
2022/05/18 01:01:10;;;;;;;2.97;2.67;;;22.80;54.90;;;;;;5068575;28;43870;-62
2022/05/18 01:03:44;;;;;;;3.42;2.63;;;22.80;54.90;;;;;;5071657;28;43540;-62
2022/05/18 01:06:23;;;;;;;2.78;2.30;;;22.80;54.90;;;;;;5063122;28;43542;-63
2022/05/18 01:09:11;;;;;;;3.00;2.80;;;22.80;54.90;;;;;;5067240;28;43815;-62
2022/05/18 01:11:41;;;;;;;2.78;2.50;;;22.80;54.90;;;;;;5069615;28;43385;-61
2022/05/18 01:14:28;;;;;;;3.22;3.00;;;22.80;54.90;;;;;;5069538;28;43490;-63
2022/05/18 01:16:56;;;;;;;4.18;3.08;;;22.80;54.90;;;;;;5068441;28;43439;-63
2022/05/18 01:19:47;;;;;;;2.80;2.60;;;22.80;54.90;;;;;;5070948;27;44822;-62
2022/05/18 01:22:26;;;;;;;3.08;2.75;;;22.70;54.90;;;;;;5062563;28;43452;-62
2022/05/18 01:25:06;;;;;;;2.80;2.60;;;22.70;54.80;;;;;;5072213;28;43363;-62
2022/05/18 01:27:33;;;;;;;3.33;2.65;;;22.70;54.80;;;;;;5068972;28;43531;-62
2022/05/18 01:30:02;;;;;;;3.10;2.78;;;22.70;54.80;;;;;;5069481;28;44995;-62
2022/05/18 01:32:40;;;;;;;3.58;3.28;;;22.70;54.80;;;;;;5069719;28;43913;-62
2022/05/18 01:35:26;;;;;;;3.00;2.80;;;22.70;54.80;;;;;;5069288;28;43457;-62
2022/05/18 01:37:59;;;;;;;3.10;2.90;;;22.70;54.80;;;;;;5069860;28;43442;-62
2022/05/18 01:40:36;;;;;;;3.30;3.00;;;22.70;54.80;;;;;;5070304;28;43798;-62
2022/05/18 01:43:30;;;;;;;2.92;2.70;;;22.70;54.80;;;;;;5066774;28;43517;-62
2022/05/18 01:46:00;;;;;;;3.60;3.30;;;22.70;54.80;;;;;;5065372;28;43482;-62
2022/05/18 01:48:31;;;;;;;3.00;2.80;;;22.70;54.80;;;;;;5069418;28;43466;-62
2022/05/18 01:51:01;;;;;;;3.15;2.95;;;22.70;54.80;;;;;;5067895;28;44366;-62
2022/05/18 01:53:30;;;;;;;3.20;2.90;;;22.70;54.80;;;;;;5069075;28;43489;-62
2022/05/18 01:55:58;;;;;;;3.30;3.08;;;22.70;54.80;;;;;;5069093;28;43488;-62
2022/05/18 01:58:25;;;;;;;3.00;2.80;;;22.70;54.80;;;;;;5071847;28;43968;-62
2022/05/18 02:00:53;;;;;;;2.88;2.67;;;22.70;54.80;;;;;;5069502;28;43799;-62
2022/05/18 02:03:22;;;;;;;3.30;3.00;;;22.60;54.80;;;;;;5066988;28;43977;-63
2022/05/18 02:05:51;;;;;;;3.28;3.05;;;22.60;54.80;;;;;;5068759;28;43479;-62
2022/05/18 02:08:21;;;;;;;3.20;2.90;;;22.60;54.80;;;;;;5071093;27;43670;-62
2022/05/18 02:10:49;;;;;;;3.10;2.90;;;22.60;54.80;;;;;;5067872;28;44737;-62
2022/05/18 02:13:17;;;;;;;3.33;2.95;;;22.60;54.80;;;;;;5064305;28;43454;-62
2022/05/18 02:15:45;;;;;;;3.22;3.00;;;22.60;54.80;;;;;;5068826;28;43387;-62
2022/05/18 02:18:12;;;;;;;3.55;3.20;;;22.60;54.80;;;;;;5068625;28;44211;-62
2022/05/18 02:20:40;;;;;;;3.45;3.15;;;22.60;54.70;;;;;;5069845;28;45053;-62
2022/05/18 02:23:08;;;;;;;3.10;2.90;;;22.60;54.80;;;;;;5060972;28;43423;-62
2022/05/18 02:25:37;;;;;;;3.75;3.40;;;22.60;54.80;;;;;;5068642;28;43541;-62
2022/05/18 02:28:05;;;;;;;3.50;3.20;;;22.60;54.80;;;;;;5071311;28;43476;-62
2022/05/18 02:30:33;;;;;;;3.70;3.40;;;22.60;54.80;;;;;;5067038;28;43802;-62
2022/05/18 02:33:00;;;;;;;3.78;3.50;;;22.60;54.80;;;;;;5067206;28;43418;-62
2022/05/18 02:35:28;;;;;;;3.13;2.83;;;22.60;54.80;;;;;;5068849;28;43477;-62
2022/05/18 02:37:56;;;;;;;3.15;2.95;;;22.50;54.80;;;;;;5070996;28;44164;-62
2022/05/18 02:40:24;;;;;;;4.00;3.63;;;22.60;54.80;;;;;;5054970;28;44716;-62
2022/05/18 02:42:52;;;;;;;3.72;3.40;;;22.60;54.80;;;;;;5062662;28;43586;-62
2022/05/18 02:45:19;;;;;;;3.45;3.15;;;22.50;54.70;;;;;;5063501;28;43518;-62
2022/05/18 02:47:47;;;;;;;3.17;2.97;;;22.50;54.70;;;;;;5070476;27;43568;-62
2022/05/18 02:50:15;;;;;;;3.40;3.20;;;22.50;54.70;;;;;;5076143;27;43836;-62
2022/05/18 02:52:42;;;;;;;3.55;3.25;;;22.60;54.80;;;;;;5068220;28;43418;-62
2022/05/18 02:57:56;;;;;;;3.50;3.20;;;22.50;54.70;;;;;;5069196;28;43492;-63
2022/05/18 03:00:24;;;;;;;3.70;3.40;;;22.50;54.70;;;;;;5068329;28;44677;-62
2022/05/18 03:02:51;;;;;;;3.72;3.42;;;22.50;54.70;;;;;;5066918;28;43712;-62
2022/05/18 03:05:19;;;;;;;3.70;3.30;;;22.50;54.80;;;;;;5067636;28;43511;-62
2022/05/18 03:07:47;;;;;;;3.72;3.42;;;22.50;54.80;;;;;;5068009;28;43561;-62
2022/05/18 03:10:15;;;;;;;4.10;3.55;;;22.50;55.40;;;;;;5068126;28;43794;-62
2022/05/18 03:12:44;;;;;;;3.70;3.40;;;22.50;54.80;;;;;;5068079;28;43980;-62
2022/05/18 03:15:13;;;;;;;3.50;3.20;;;22.50;54.80;;;;;;5069423;28;43416;-62
2022/05/18 03:17:40;;;;;;;3.50;3.20;;;22.50;54.70;;;;;;5066581;28;43474;-62
2022/05/18 03:23:33;;;;;;;3.78;3.38;;;22.50;54.80;;;;;;5066721;28;43807;-62
2022/05/18 03:23:42;;;;;;;3.80;3.50;;;22.40;54.70;;;;;;5069131;28;43391;-62
2022/05/18 03:25:44;;;;;;;3.60;3.30;;;22.40;54.70;;;;;;5057529;28;43524;-62
2022/05/18 03:28:12;;;;;;;3.90;3.50;;;22.40;54.70;;;;;;5067727;28;43406;-62
2022/05/18 03:30:39;;;;;;;3.67;3.40;;;22.40;54.70;;;;;;5068996;28;44769;-62
2022/05/18 03:33:07;;;;;;;3.30;3.10;;;22.40;54.70;;;;;;5066067;27;43977;-62
2022/05/18 03:35:35;;;;;;;3.35;3.15;;;22.40;54.70;;;;;;5067184;28;43396;-62
2022/05/18 03:38:05;;;;;;;3.63;3.33;;;22.40;54.70;;;;;;5065868;28;43565;-62
2022/05/18 03:40:37;;;;;;;3.92;3.63;;;22.40;54.70;;;;;;5067344;28;43806;-62
2022/05/18 03:43:05;;;;;;;3.42;3.13;;;22.40;54.80;;;;;;5063271;28;43415;-62
2022/05/18 03:45:33;;;;;;;3.65;3.33;;;22.40;54.80;;;;;;5067243;28;43537;-62
2022/05/18 03:48:06;;;;;;;3.72;3.47;;;22.40;54.70;;;;;;5066224;28;43531;-62
2022/05/18 03:50:36;;;;;;;3.33;3.10;;;22.40;54.70;;;;;;5067414;28;44164;-62
2022/05/18 03:53:05;;;;;;;3.40;3.10;;;22.30;54.70;;;;;;5065203;28;43513;-62
2022/05/18 03:55:33;;;;;;;3.33;3.13;;;22.30;54.70;;;;;;5067114;28;43435;-62
2022/05/18 03:58:00;;;;;;;3.40;3.10;;;22.40;54.80;;;;;;5067307;28;43432;-63
2022/05/18 04:00:28;;;;;;;3.25;3.05;;;22.30;54.70;;;;;;5063804;28;44699;-62
2022/05/18 04:02:56;;;;;;;3.60;3.30;;;22.30;54.70;;;;;;5066908;28;44239;-62
2022/05/18 04:05:24;;;;;;;3.83;3.53;;;22.30;54.70;;;;;;5067084;28;43504;-62
2022/05/18 04:07:52;;;;;;;3.60;3.30;;;22.30;54.70;;;;;;5067234;28;43576;-62
2022/05/18 04:10:20;;;;;;;3.50;3.20;;;22.30;54.70;;;;;;5066611;28;44671;-62
2022/05/18 04:12:47;;;;;;;3.35;3.08;;;22.30;54.70;;;;;;5067439;28;43863;-62
2022/05/18 04:15:18;;;;;;;3.38;3.15;;;22.30;54.70;;;;;;5067234;28;43492;-62
2022/05/18 04:17:47;;;;;;;3.40;3.20;;;22.30;54.70;;;;;;5067646;28;43539;-62
2022/05/18 04:20:18;;;;;;;3.17;2.88;;;22.30;54.70;;;;;;5069828;27;44673;-61
2022/05/18 04:22:46;;;;;;;3.47;3.17;;;22.30;54.70;;;;;;5066970;28;43489;-62
2022/05/18 04:25:18;;;;;;;3.22;3.03;;;22.30;54.70;;;;;;5067050;28;43399;-62
2022/05/18 04:27:47;;;;;;;2.97;2.70;;;22.20;54.70;;;;;;5068886;28;43719;-62
2022/05/18 04:30:16;;;;;;;3.38;3.08;;;22.20;54.70;;;;;;5065519;28;43793;-62
2022/05/18 04:32:44;;;;;;;3.05;2.85;;;22.20;54.70;;;;;;5064837;28;43979;-62
2022/05/18 04:35:14;;;;;;;3.40;3.10;;;22.20;54.70;;;;;;5071672;28;43402;-61
2022/05/18 04:37:42;;;;;;;3.05;2.85;;;22.20;54.70;;;;;;5067665;28;43503;-62
2022/05/18 04:40:11;;;;;;;3.30;3.10;;;22.20;54.70;;;;;;5067293;28;43799;-62
2022/05/18 04:42:38;;;;;;;3.38;3.17;;;22.20;54.70;;;;;;5066524;28;43477;-62
2022/05/18 04:45:08;;;;;;;2.70;2.50;;;22.20;54.70;;;;;;5062646;28;43484;-62
2022/05/18 04:47:36;;;;;;;3.10;2.90;;;22.20;54.70;;;;;;5065741;28;43539;-62
2022/05/18 04:50:04;;;;;;;2.90;2.70;;;22.20;54.70;;;;;;5066728;27;43732;-61
2022/05/18 04:52:32;;;;;;;3.00;2.80;;;22.10;54.60;;;;;;5060231;28;43486;-62
2022/05/18 04:54:59;;;;;;;3.42;3.17;;;22.20;54.70;;;;;;5066598;28;43574;-62
2022/05/18 04:57:26;;;;;;;3.30;3.10;;;22.20;54.80;;;;;;5067965;28;43469;-62
2022/05/18 04:59:54;;;;;;;3.42;3.13;;;22.10;54.80;;;;;;5066423;28;43763;-62
2022/05/18 05:02:21;;;;;;;2.97;2.78;;;22.10;54.80;;;;;;5066417;28;43749;-62
2022/05/18 05:04:49;;;;;;;2.90;2.70;;;22.10;54.80;;;;;;5066751;28;43516;-62
2022/05/18 05:07:16;;;;;;;3.20;2.90;;;22.10;54.80;;;;;;5067114;28;43509;-62
2022/05/18 05:09:44;;;;;;;2.80;2.60;;;22.10;54.80;;;;;;5065521;28;44137;-62
2022/05/18 05:12:11;;;;;;;2.70;2.50;;;22.10;54.80;;;;;;5066541;28;43798;-62
2022/05/18 05:14:40;;;;;;;3.00;2.80;;;22.10;54.80;;;;;;5066122;28;43431;-62
2022/05/18 05:17:08;;;;;;;2.55;2.40;;;22.10;54.80;;;;;;5065945;28;43533;-62
2022/05/18 05:19:36;;;;;;;3.42;3.13;;;22.10;54.80;;;;;;5066454;28;43783;-63
2022/05/18 05:22:04;;;;;;;2.67;2.47;;;22.10;54.80;;;;;;5066186;27;43523;-62
2022/05/18 05:24:32;;;;;;;3.15;2.85;;;22.10;54.80;;;;;;5066423;28;43496;-62
2022/05/18 05:26:59;;;;;;;2.70;2.50;;;22.10;54.80;;;;;;5062727;28;43440;-62
2022/05/18 05:29:27;;;;;;;2.72;2.53;;;22.10;54.90;;;;;;5065638;28;44690;-61
2022/05/18 05:31:54;;;;;;;2.80;2.60;;;22.00;55.00;;;;;;5065903;28;43735;-62
2022/05/18 05:34:22;;;;;;;2.60;2.50;;;22.00;55.00;;;;;;5063802;28;43443;-61
2022/05/18 05:36:49;;;;;;;2.88;2.60;;;22.00;55.00;;;;;;5063204;28;43388;-62
2022/05/18 05:39:18;;;;;;;2.55;2.35;;;22.00;55.10;;;;;;5065529;28;43820;-62
2022/05/18 05:41:46;;;;;;;2.70;2.50;;;22.00;55.20;;;;;;5066718;28;43875;-63
2022/05/18 05:44:14;;;;;;;2.75;2.42;;;22.00;55.10;;;;;;5066663;28;43506;-62
2022/05/18 05:46:41;;;;;;;2.60;2.40;;;22.00;55.20;;;;;;5066088;28;43458;-61
2022/05/18 05:49:11;;;;;;;2.70;2.50;;;21.90;55.20;;;;;;5066335;28;43780;-61
2022/05/18 05:51:39;;;;;;;3.83;2.30;;;22.00;55.30;;;;;;5069445;28;45059;-62
2022/05/18 05:54:08;;;;;;;2.50;2.30;;;22.00;55.30;;;;;;5068137;28;43477;-62
2022/05/18 05:56:35;;;;;;;2.72;2.55;;;21.90;55.30;;;;;;5071212;27;43450;-62
2022/05/18 05:59:03;;;;;;;2.30;2.20;;;22.00;55.40;;;;;;5063730;28;44659;-62
2022/05/18 06:01:30;;;;;;;2.42;2.33;;;21.90;55.30;;;;;;5060399;28;43733;-62
2022/05/18 06:03:58;;;;;;;2.30;2.20;;;22.00;55.40;;;;;;5065791;28;44139;-61
2022/05/18 06:06:26;;;;;;;2.13;2.03;;;22.00;55.40;;;;;;5067760;27;43588;-61
2022/05/18 06:08:58;;;;;;;2.30;2.20;;;21.90;55.30;;;;;;5069085;28;44052;-62
2022/05/18 06:11:27;;;;;;;1.90;1.80;;;22.00;55.40;;;;;;5066826;28;43505;-61
2022/05/18 06:13:54;;;;;;;1.92;1.83;;;22.00;55.40;;;;;;5070595;28;43401;-62
2022/05/18 06:16:22;;;;;;;2.10;2.00;;;21.90;55.40;;;;;;5069929;28;43518;-62
2022/05/18 06:18:49;;;;;;;2.17;2.05;;;22.00;55.60;;;;;;5068709;28;45143;-61
2022/05/18 06:21:18;;;;;;;2.38;2.17;;;21.90;55.30;;;;;;5066477;28;43674;-61
2022/05/18 06:23:45;;;;;;;2.10;2.00;;;21.90;55.30;;;;;;5061410;28;43485;-62
2022/05/18 06:26:13;;;;;;;2.22;2.03;;;22.00;55.40;;;;;;5069414;27;43582;-61
2022/05/18 06:28:41;;;;;;;2.20;2.10;;;21.90;55.30;;;;;;5067488;28;44968;-62
2022/05/18 06:31:08;;;;;;;2.22;2.03;;;22.00;55.40;;;;;;5068623;28;43694;-61
2022/05/18 06:33:36;;;;;;;1.98;1.88;;;22.00;55.40;;;;;;5067284;28;43429;-61
2022/05/18 06:36:04;;;;;;;1.85;1.75;;;22.00;55.30;;;;;;5075488;27;43541;-61
2022/05/18 06:38:32;;;;;;;2.03;1.92;;;22.00;55.30;;;;;;5049090;28;44308;-61
2022/05/18 06:43:45;;;;;;;2.28;2.10;;;22.00;55.10;;;;;;5064896;28;43418;-61
2022/05/18 06:46:12;;;;;;;2.35;2.13;;;22.00;55.10;;;;;;5067506;28;43521;-61
2022/05/18 06:48:40;;;;;;;2.10;2.00;;;22.00;55.10;;;;;;5065132;28;44053;-61
2022/05/18 06:51:17;;;;;;;2.30;1.77;;;22.00;55.10;;;;;;5069107;28;43762;-62
2022/05/18 06:53:46;;;;;;;1.90;1.80;;;22.00;55.80;;;;;;5068357;27;43410;-61
2022/05/18 06:56:14;;;;;;;2.10;2.00;;;22.00;55.00;;;;;;5068089;28;43545;-61
2022/05/18 06:58:41;;;;;;;2.05;1.95;;;22.00;55.00;;;;;;5064901;28;44794;-62
2022/05/18 07:01:16;;;;;;;2.10;2.00;;;22.00;55.00;;;;;;5069497;28;44674;-62
2022/05/18 07:03:45;;;;;;;2.30;2.10;;;22.00;55.00;;;;;;5068901;28;43477;-61
2022/05/18 07:06:15;;;;;;;2.15;2.05;;;22.00;54.90;;;;;;5066876;28;43527;-61
2022/05/18 07:08:43;;;;;;;1.90;1.80;;;22.00;54.90;;;;;;5067909;28;43591;-61
2022/05/18 07:11:11;;;;;;;2.10;2.00;;;22.10;55.00;;;;;;5070850;28;43695;-61
2022/05/18 07:13:38;;;;;;;2.08;1.60;;;22.00;54.90;;;;;;5068175;28;43495;-61
2022/05/18 07:16:06;;;;;;;2.00;1.90;;;22.00;54.80;;;;;;5065919;28;43581;-62
2022/05/18 07:18:35;;;;;;;1.95;1.85;;;22.00;54.90;;;;;;5067777;28;43774;-61
2022/05/18 07:21:04;;;;;;;1.90;1.80;;;22.00;55.00;;;;;;5071523;28;43860;-61
2022/05/18 07:23:32;;;;;;;2.22;2.00;;;22.10;55.10;;;;;;5065749;28;43539;-61
2022/05/18 07:26:00;;;;;;;1.90;1.80;;;22.10;55.00;;;;;;5065481;28;43494;-61
2022/05/18 07:28:28;;;;;;;2.15;1.98;;;22.10;55.10;;;;;;5067532;28;43955;-61
2022/05/18 07:30:55;;;;;;;2.00;1.90;;;22.10;55.10;;;;;;5066291;28;44027;-62
2022/05/18 07:33:25;;;;;;;1.80;1.70;;;22.10;55.30;;;;;;5068004;28;43391;-62
2022/05/18 07:35:55;;;;;;;2.28;2.08;;;22.10;55.10;;;;;;5065634;28;43683;-62
2022/05/18 07:38:25;;;;;;;2.20;2.10;;;22.10;55.20;;;;;;5068056;28;46088;-62
2022/05/18 07:41:06;;;;;;;2.13;1.75;;;22.10;55.10;;;;;;5068169;28;43488;-62
2022/05/18 07:43:33;;;;;;;1.90;1.80;;;22.10;55.20;;;;;;5065606;28;43464;-62
2022/05/18 07:46:01;;;;;;;1.90;1.80;;;22.10;55.20;;;;;;5065835;28;43548;-62
2022/05/18 07:48:29;;;;;;;2.63;2.10;;;22.20;55.20;;;;;;5065793;28;44685;-62
2022/05/18 07:50:57;;;;;;;2.35;2.15;;;22.10;55.20;;;;;;5067714;28;44008;-62
2022/05/18 07:53:25;;;;;;;1.80;1.70;;;22.10;55.20;;;;;;5064462;28;43477;-61
2022/05/18 07:55:53;;;;;;;1.95;1.80;;;22.10;55.40;;;;;;5067194;28;43488;-62
2022/05/18 07:58:21;;;;;;;3.10;2.30;;;22.10;55.40;;;;;;5069456;28;44089;-62
2022/05/18 08:00:49;;;;;;;1.80;1.70;;;22.20;55.50;;;;;;5064900;28;43812;-61
2022/05/18 08:03:17;;;;;;;1.88;1.77;;;22.20;55.50;;;;;;5074972;28;43410;-62
2022/05/18 08:05:45;;;;;;;2.05;1.92;;;22.20;55.40;;;;;;5067651;27;43458;-61
2022/05/18 08:08:16;;;;;;;3.70;2.13;;;22.20;55.50;;;;;;5072462;28;44707;-61
2022/05/18 08:16:17;;;;;;;2.30;2.10;;;22.20;55.50;;;;;;5065693;28;43486;-62
2022/05/18 08:18:45;;;;;;;2.50;2.30;;;22.20;55.50;;;;;;5057488;28;44969;-62
2022/05/18 08:21:13;;;;;;;1.92;1.80;;;22.20;55.50;;;;;;5064792;28;43445;-62
2022/05/18 08:23:42;;;;;;;1.73;1.63;;;22.20;55.50;;;;;;5076203;28;43514;-62
2022/05/18 08:26:10;;;;;;;2.03;1.90;;;22.20;55.50;;;;;;5067982;27;43453;-62
2022/05/18 08:28:38;;;;;;;2.70;2.00;;;22.20;55.50;;;;;;5055665;28;44161;-62
2022/05/18 08:31:06;;;;;;;3.30;2.40;;;22.20;55.50;;;;;;5066576;28;43531;-62
2022/05/18 08:33:33;;;;;;;2.30;2.10;;;22.30;55.60;;;;;;5068003;28;43418;-63
2022/05/18 08:36:06;;;;;;;3.20;2.00;;;22.30;55.60;;;;;;5068904;28;43526;-62
2022/05/18 08:38:35;;;;;;;2.78;2.22;;;22.30;55.60;;;;;;5064781;28;43755;-62
2022/05/18 08:41:38;;;;;;;2.13;1.90;;;22.30;55.60;;;;;;5066113;28;43547;-62
2022/05/18 08:44:08;;;;;;;2.20;2.00;;;22.30;55.60;;;;;;5042577;28;43417;-62
2022/05/18 08:46:58;;;;;;;2.55;1.88;;;22.30;55.10;;;;;;5066267;28;43565;-62
2022/05/18 08:49:50;;;;;;;2.60;2.28;;;22.30;55.30;;;;;;5066351;28;44666;-62
2022/05/18 08:52:39;;;;;;;2.17;1.98;;;22.30;55.40;;;;;;5060779;28;43439;-61
2022/05/18 08:55:07;;;;;;;2.72;2.08;;;22.40;55.40;;;;;;5067713;28;44231;-62
2022/05/18 08:57:40;;;;;;;2.05;1.90;;;22.40;55.60;;;;;;5064891;28;43644;-61
2022/05/18 09:00:17;;;;;;;1.95;1.67;;;22.40;55.30;;;;;;5060589;28;44042;-62
2022/05/18 09:02:46;;;;;;;2.20;1.80;;;22.40;55.30;;;;;;5064164;28;43553;-62
2022/05/18 09:05:24;;;;;;;2.15;1.95;;;22.40;55.20;;;;;;5067934;28;43410;-62
2022/05/18 09:08:16;;;;;;;3.00;2.30;;;22.40;55.10;;;;;;5057390;28;43593;-61
2022/05/18 09:11:06;;;;;;;2.33;2.13;;;22.50;55.30;;;;;;5066622;28;43945;-62
2022/05/18 09:13:37;;;;;;;2.55;1.75;;;22.50;55.10;;;;;;5064638;28;43714;-62
2022/05/18 09:16:37;;;;;;;2.08;1.88;;;22.50;55.20;;;;;;5065607;28;43575;-62
2022/05/18 09:19:42;;;;;;;1.90;1.80;;;22.50;55.20;;;;;;5070252;28;43586;-62
2022/05/18 09:22:10;;;;;;;1.90;1.80;;;22.50;55.00;;;;;;5057204;28;43811;-62
2022/05/18 09:24:37;;;;;;;1.85;1.75;;;22.50;55.00;;;;;;5071492;28;43497;-62
2022/05/18 09:27:35;;;;;;;1.98;1.80;;;22.60;55.10;;;;;;5069219;28;43409;-61
2022/05/18 09:30:11;;;;;;;2.05;1.85;;;22.60;55.10;;;;;;5069668;28;43452;-62
2022/05/18 09:33:11;;;;;;;2.20;2.00;;;22.60;55.10;;;;;;5065142;28;43981;-63
2022/05/18 09:35:47;;;;;;;2.63;2.20;;;22.60;55.00;;;;;;5058651;28;44024;-62
2022/05/18 09:38:33;;;;;;;2.25;1.67;;;22.60;55.20;;;;;;5069638;28;43499;-63
2022/05/18 09:41:04;;;;;;;1.92;1.75;;;22.60;55.00;;;;;;5068237;28;43537;-63
2022/05/18 09:43:54;;;;;;;2.22;1.80;;;22.70;55.10;;;;;;5067714;28;44646;-62
2022/05/18 09:46:26;;;;;;;2.40;2.20;;;22.70;55.10;;;;;;5070469;28;44002;-62
2022/05/18 09:49:10;;;;;;;2.10;1.90;;;22.80;55.30;;;;;;5067190;28;43520;-62
2022/05/18 09:51:38;;;;;;;1.98;1.80;;;22.70;55.30;;;;;;5069025;28;43461;-62
2022/05/18 09:54:06;;;;;;;2.35;1.92;;;22.80;55.30;;;;;;5067150;28;44701;-62
2022/05/18 09:56:44;;;;;;;2.38;1.83;;;22.80;55.30;;;;;;5070624;27;43527;-62
2022/05/18 09:59:16;;;;;;;2.17;1.85;;;22.80;55.10;;;;;;5069289;28;43429;-63
2022/05/18 10:07:27;;;;;;;2.67;1.77;;;22.90;55.10;;;;;;5068814;28;43971;-62
2022/05/18 10:10:19;;;;;;;2.05;1.85;;;22.90;55.20;;;;;;5070862;28;43480;-62
2022/05/18 10:12:58;;;;;;;2.60;1.67;;;23.00;55.20;;;;;;5059410;28;43530;-62
2022/05/18 10:15:25;;;;;;;1.80;1.65;;;23.00;55.20;;;;;;5068714;28;43864;-63
2022/05/18 10:18:00;;;;;;;2.17;1.70;;;23.10;55.20;;;;;;5070882;28;43840;-62
2022/05/18 10:20:36;;;;;;;2.15;1.80;;;23.10;55.10;;;;;;5065477;28;43781;-62
2022/05/18 10:23:50;;;;;;;2.40;2.20;;;23.10;55.10;;;;;;5065289;28;44006;-62
2022/05/18 10:26:36;;;;;;;2.15;2.05;;;23.20;55.20;;;;;;5013634;28;43967;-62
2022/05/18 10:29:14;;;;;;;2.67;1.80;;;23.20;55.00;;;;;;5060565;28;43518;-63
2022/05/18 10:32:01;;;;;;;2.30;1.90;;;23.20;55.00;;;;;;5071299;28;43500;-63
2022/05/18 10:34:32;;;;;;;2.22;1.90;;;23.20;54.90;;;;;;5068928;28;43372;-62
2022/05/18 10:37:01;;;;;;;2.40;2.20;;;23.20;55.10;;;;;;5073935;28;43803;-63
2022/05/18 10:39:39;;;;;;;3.08;1.90;;;23.20;55.20;;;;;;5068898;28;43474;-62
2022/05/18 10:42:33;;;;;;;2.88;1.92;;;23.20;55.20;;;;;;5069391;28;43412;-62
2022/05/18 10:45:20;;;;;;;2.20;1.90;;;23.20;54.90;;;;;;5070299;28;43535;-62
2022/05/18 10:47:50;;;;;;;2.17;2.00;;;23.20;54.90;;;;;;5065655;28;44729;-62
2022/05/18 10:50:34;;;;;;;2.40;2.20;;;23.30;55.00;;;;;;5068534;28;44041;-62
2022/05/18 10:53:30;;;;;;;2.92;2.50;;;23.30;54.90;;;;;;5065172;28;43410;-63
2022/05/18 10:55:57;;;;;;;2.22;2.00;;;23.30;55.10;;;;;;5064903;28;43459;-62
2022/05/18 10:59:15;;;;;;;2.20;2.00;;;23.30;55.10;;;;;;5065839;28;45090;-62
2022/05/18 11:02:13;;;;;;;2.00;1.80;;;23.40;55.10;;;;;;5068722;28;43440;-63
2022/05/18 11:04:50;;;;;;;2.72;1.95;;;23.40;55.00;;;;;;5052183;28;43526;-62
2022/05/18 11:07:24;;;;;;;2.50;1.73;;;23.40;54.90;;;;;;5057174;28;43496;-62
2022/05/18 11:09:52;;;;;;;2.20;2.00;;;23.40;54.90;;;;;;5067905;28;43808;-62
2022/05/18 11:12:42;;;;;;;2.22;2.03;;;23.40;54.90;;;;;;5068182;28;43402;-62
2022/05/18 11:15:30;;;;;;;2.03;1.80;;;23.50;55.00;;;;;;5064832;28;43467;-62
2022/05/18 11:17:57;;;;;;;2.40;1.83;;;23.50;54.70;;;;;;5067741;28;43527;-62
2022/05/18 11:20:48;;;;;;;2.15;1.98;;;23.50;54.90;;;;;;5063892;28;43810;-62
2022/05/18 11:23:28;;;;;;;2.30;2.10;;;23.50;54.90;;;;;;5066692;28;43751;-62
2022/05/18 11:26:05;;;;;;;1.90;1.80;;;23.50;54.80;;;;;;5065131;28;43434;-62
2022/05/18 11:29:02;;;;;;;2.50;2.30;;;23.50;54.70;;;;;;5068367;28;43608;-62
2022/05/18 11:31:51;;;;;;;2.47;2.28;;;23.60;55.10;;;;;;5067629;28;43797;-62
2022/05/18 11:34:34;;;;;;;2.40;1.77;;;23.60;54.90;;;;;;5066822;28;43404;-62
2022/05/18 11:37:20;;;;;;;2.70;1.90;;;23.60;55.10;;;;;;5067464;28;43462;-62
2022/05/18 11:39:56;;;;;;;2.25;2.08;;;23.60;55.00;;;;;;5067261;28;43463;-62
2022/05/18 11:42:41;;;;;;;2.05;1.88;;;23.70;55.10;;;;;;5069394;28;44058;-62
2022/05/18 11:45:29;;;;;;;1.98;1.88;;;23.70;54.90;;;;;;5063334;28;43478;-62
2022/05/18 11:48:31;;;;;;;2.20;2.00;;;23.70;55.00;;;;;;5067395;28;43478;-62
2022/05/18 11:51:11;;;;;;;2.25;2.15;;;23.80;55.00;;;;;;5066192;28;43482;-62
2022/05/18 11:54:06;;;;;;;2.70;2.50;;;23.80;55.20;;;;;;5065355;28;45043;-62
2022/05/18 11:57:01;;;;;;;2.72;2.20;;;23.80;55.30;;;;;;5066375;28;43454;-62
2022/05/18 12:00:03;;;;;;;2.42;2.20;;;23.90;55.30;;;;;;5060432;28;43483;-62
2022/05/18 12:02:46;;;;;;;2.65;2.30;;;23.90;55.30;;;;;;5067424;28;43552;-62
2022/05/18 12:05:50;;;;;;;2.42;2.22;;;23.90;55.30;;;;;;5067160;28;43787;-62
2022/05/18 12:09:03;;;;;;;2.42;2.05;;;23.90;55.30;;;;;;5065687;28;43486;-62
2022/05/18 12:11:52;;;;;;;2.30;2.10;;;24.00;55.20;;;;;;5045099;28;43467;-62
2022/05/18 12:14:40;;;;;;;2.63;2.20;;;24.00;55.10;;;;;;5067732;28;43442;-62
2022/05/18 12:17:23;;;;;;;3.55;2.20;;;24.00;55.20;;;;;;5066585;28;43793;-62
2022/05/18 12:20:17;;;;;;;2.63;2.38;;;24.00;55.30;;;;;;5068145;28;43420;-62
2022/05/18 12:22:52;;;;;;;3.53;2.75;;;24.10;55.20;;;;;;5058816;28;43468;-62
2022/05/18 12:25:23;;;;;;;3.78;2.45;;;24.10;55.40;;;;;;5062070;28;43417;-62
2022/05/18 12:27:51;;;;;;;;;;;24.10;55.30;;;;;;5069321;28;45038;-62
2022/05/18 12:30:21;;;;;;;2.20;1.98;;;24.20;55.00;;;;;;5063686;28;43401;-62
2022/05/18 12:32:50;;;;;;;2.30;2.13;;;24.20;55.10;;;;;;5066626;28;43554;-63
2022/05/18 12:35:51;;;;;;;2.58;2.38;;;24.20;55.20;;;;;;5066861;28;43458;-62
2022/05/18 12:38:38;;;;;;;2.50;2.13;;;24.20;55.50;;;;;;5065426;28;45010;-62
2022/05/18 12:41:11;;;;;;;2.50;2.30;;;24.20;55.40;;;;;;5063351;28;43464;-62
2022/05/18 12:43:58;;;;;;;2.63;2.40;;;24.30;55.50;;;;;;5063275;28;43564;-62
2022/05/18 12:46:37;;;;;;;3.15;2.63;;;24.30;55.70;;;;;;5057315;28;43592;-63
2022/05/18 12:49:10;;;;;;;2.40;2.20;;;24.30;55.50;;;;;;5064663;28;43825;-62
2022/05/18 12:51:53;;;;;;;2.75;2.42;;;24.20;55.30;;;;;;5066841;27;43876;-62
2022/05/18 12:54:30;;;;;;;2.63;2.42;;;24.20;55.40;;;;;;5066715;28;43458;-62
2022/05/18 12:57:07;;;;;;;2.50;2.30;;;24.20;55.50;;;;;;5066407;28;43468;-62
2022/05/18 12:59:56;;;;;;;2.83;2.55;;;24.30;55.50;;;;;;5066124;28;43816;-62
2022/05/18 13:02:47;;;;;;;2.88;2.65;;;24.30;55.50;;;;;;5066331;28;43475;-63
2022/05/18 13:05:26;;;;;;;3.40;2.80;;;24.30;55.80;;;;;;5064714;28;43398;-62
2022/05/18 13:07:59;;;;;;;4.30;3.20;;;24.30;55.70;;;;;;5066340;28;43532;-62
2022/05/18 13:10:34;;;;;;;6.10;3.67;;;24.30;55.70;;;;;;5066323;28;44224;-62
2022/05/18 13:13:17;;;;;;;3.90;3.30;;;24.30;55.80;;;;;;5068730;28;43721;-62
2022/05/18 13:15:59;;;;;;;5.10;4.22;;;24.30;55.90;;;;;;5064588;28;43493;-62
2022/05/18 13:18:33;;;;;;;7.20;4.30;;;24.30;55.80;;;;;;5066113;28;43460;-62
2022/05/18 13:21:07;;;;;;;5.78;4.22;;;24.30;55.80;;;;;;5067857;28;44672;-62
2022/05/18 13:23:40;;;;;;;7.85;3.85;;;24.30;55.70;;;;;;5065561;28;43533;-62
2022/05/18 13:26:22;;;;;;;5.63;4.10;;;24.30;55.70;;;;;;5063587;28;43493;-62
2022/05/18 13:28:55;;;;;;;4.80;3.40;;;24.30;55.70;;;;;;5064465;28;43451;-62
2022/05/18 13:31:23;;;;;;;6.75;4.18;;;24.40;55.70;;;;;;5062571;28;43797;-62
2022/05/18 13:34:04;;;;;;;6.05;4.38;;;24.40;55.70;;;;;;5066273;28;43513;-62
2022/05/18 13:36:56;;;;;;;5.38;4.45;;;24.40;55.70;;;;;;5064118;28;43530;-62
2022/05/18 13:39:27;;;;;;;6.28;3.67;;;24.40;56.00;;;;;;5061703;28;43462;-62